sensor_id;sensor_type;location;lat;lon;timestamp;pressure;altitude;pressure_sealevel;temperature
15626;BMP180;7912;51.376;6.126;2023-12-29T00:02:21;100579.00;;;14.80
15626;BMP180;7912;51.376;6.126;2023-12-29T00:04:51;100597.00;;;14.70
15626;BMP180;7912;51.376;6.126;2023-12-29T00:07:18;100583.00;;;14.80
15626;BMP180;7912;51.376;6.126;2023-12-29T00:09:48;100577.00;;;14.80
15626;BMP180;7912;51.376;6.126;2023-12-29T00:12:15;100576.00;;;14.80
15626;BMP180;7912;51.376;6.126;2023-12-29T00:14:43;100557.00;;;14.80
15626;BMP180;7912;51.376;6.126;2023-12-29T00:17:13;100568.00;;;14.80
15626;BMP180;7912;51.376;6.126;2023-12-29T00:19:41;100569.00;;;14.80
15626;BMP180;7912;51.376;6.126;2023-12-29T00:22:08;100586.00;;;14.80
15626;BMP180;7912;51.376;6.126;2023-12-29T00:24:35;100570.00;;;14.90
15626;BMP180;7912;51.376;6.126;2023-12-29T00:27:03;100557.00;;;14.90
15626;BMP180;7912;51.376;6.126;2023-12-29T00:29:30;100557.00;;;14.90
15626;BMP180;7912;51.376;6.126;2023-12-29T00:32:01;100550.00;;;14.90
15626;BMP180;7912;51.376;6.126;2023-12-29T00:34:30;100546.00;;;14.90
15626;BMP180;7912;51.376;6.126;2023-12-29T00:36:59;100551.00;;;14.90
15626;BMP180;7912;51.376;6.126;2023-12-29T00:39:26;100555.00;;;14.90
15626;BMP180;7912;51.376;6.126;2023-12-29T00:41:58;100539.00;;;14.80
15626;BMP180;7912;51.376;6.126;2023-12-29T00:44:29;100527.00;;;14.80
15626;BMP180;7912;51.376;6.126;2023-12-29T00:46:57;100526.00;;;14.90
15626;BMP180;7912;51.376;6.126;2023-12-29T00:49:24;100534.00;;;14.90
15626;BMP180;7912;51.376;6.126;2023-12-29T00:51:51;100528.00;;;14.90
15626;BMP180;7912;51.376;6.126;2023-12-29T00:54:19;100527.00;;;14.90
15626;BMP180;7912;51.376;6.126;2023-12-29T00:56:51;100519.00;;;14.80
15626;BMP180;7912;51.376;6.126;2023-12-29T00:59:21;100510.00;;;14.80
15626;BMP180;7912;51.376;6.126;2023-12-29T01:01:51;100531.00;;;14.90
15626;BMP180;7912;51.376;6.126;2023-12-29T01:04:18;100517.00;;;14.80
15626;BMP180;7912;51.376;6.126;2023-12-29T01:06:46;100528.00;;;14.80
15626;BMP180;7912;51.376;6.126;2023-12-29T01:09:13;100521.00;;;14.90
15626;BMP180;7912;51.376;6.126;2023-12-29T01:11:40;100505.00;;;14.90
15626;BMP180;7912;51.376;6.126;2023-12-29T01:14:08;100509.00;;;14.90
15626;BMP180;7912;51.376;6.126;2023-12-29T01:16:35;100492.00;;;14.80
15626;BMP180;7912;51.376;6.126;2023-12-29T01:19:02;100491.00;;;14.80
15626;BMP180;7912;51.376;6.126;2023-12-29T01:21:30;100501.00;;;14.80
15626;BMP180;7912;51.376;6.126;2023-12-29T01:24:01;100503.00;;;14.80
15626;BMP180;7912;51.376;6.126;2023-12-29T01:26:31;100492.00;;;14.80
15626;BMP180;7912;51.376;6.126;2023-12-29T01:28:58;100490.00;;;14.70
15626;BMP180;7912;51.376;6.126;2023-12-29T01:31:29;100499.00;;;14.70
15626;BMP180;7912;51.376;6.126;2023-12-29T01:34:00;100503.00;;;14.70
15626;BMP180;7912;51.376;6.126;2023-12-29T01:36:27;100518.00;;;14.60
15626;BMP180;7912;51.376;6.126;2023-12-29T01:38:55;100490.00;;;14.60
15626;BMP180;7912;51.376;6.126;2023-12-29T01:41:22;100518.00;;;14.50
15626;BMP180;7912;51.376;6.126;2023-12-29T01:46:31;100512.00;;;14.40
15626;BMP180;7912;51.376;6.126;2023-12-29T01:49:01;100530.00;;;14.40
15626;BMP180;7912;51.376;6.126;2023-12-29T01:51:29;100533.00;;;14.30
15626;BMP180;7912;51.376;6.126;2023-12-29T01:53:58;100539.00;;;14.30
15626;BMP180;7912;51.376;6.126;2023-12-29T01:56:26;100522.00;;;14.20
15626;BMP180;7912;51.376;6.126;2023-12-29T01:58:55;100534.00;;;14.20
15626;BMP180;7912;51.376;6.126;2023-12-29T02:01:38;100534.00;;;14.10
15626;BMP180;7912;51.376;6.126;2023-12-29T02:04:09;100538.00;;;14.10
15626;BMP180;7912;51.376;6.126;2023-12-29T02:06:39;100526.00;;;14.00
15626;BMP180;7912;51.376;6.126;2023-12-29T02:09:08;100540.00;;;14.00
15626;BMP180;7912;51.376;6.126;2023-12-29T02:11:36;100526.00;;;13.90
15626;BMP180;7912;51.376;6.126;2023-12-29T02:14:03;100535.00;;;13.90
15626;BMP180;7912;51.376;6.126;2023-12-29T02:16:44;100529.00;;;13.80
15626;BMP180;7912;51.376;6.126;2023-12-29T02:19:38;100532.00;;;13.80
15626;BMP180;7912;51.376;6.126;2023-12-29T02:22:08;100527.00;;;13.80
15626;BMP180;7912;51.376;6.126;2023-12-29T02:24:38;100506.00;;;13.80
15626;BMP180;7912;51.376;6.126;2023-12-29T02:27:34;100507.00;;;13.80
15626;BMP180;7912;51.376;6.126;2023-12-29T02:30:38;100511.00;;;13.80
15626;BMP180;7912;51.376;6.126;2023-12-29T02:33:10;100503.00;;;13.70
15626;BMP180;7912;51.376;6.126;2023-12-29T02:35:43;100480.00;;;13.80
15626;BMP180;7912;51.376;6.126;2023-12-29T02:38:13;100494.00;;;13.80
15626;BMP180;7912;51.376;6.126;2023-12-29T02:40:41;100493.00;;;13.80
15626;BMP180;7912;51.376;6.126;2023-12-29T02:43:11;100490.00;;;13.80
15626;BMP180;7912;51.376;6.126;2023-12-29T02:45:39;100500.00;;;13.80
15626;BMP180;7912;51.376;6.126;2023-12-29T02:48:06;100492.00;;;13.90
15626;BMP180;7912;51.376;6.126;2023-12-29T02:50:34;100480.00;;;13.90
15626;BMP180;7912;51.376;6.126;2023-12-29T02:53:05;100474.00;;;13.90
15626;BMP180;7912;51.376;6.126;2023-12-29T02:55:32;100475.00;;;13.90
15626;BMP180;7912;51.376;6.126;2023-12-29T02:57:59;100489.00;;;14.00
15626;BMP180;7912;51.376;6.126;2023-12-29T03:00:29;100487.00;;;14.00
15626;BMP180;7912;51.376;6.126;2023-12-29T03:02:57;100493.00;;;14.00
15626;BMP180;7912;51.376;6.126;2023-12-29T03:05:24;100496.00;;;14.10
15626;BMP180;7912;51.376;6.126;2023-12-29T03:07:52;100480.00;;;14.10
15626;BMP180;7912;51.376;6.126;2023-12-29T03:10:19;100500.00;;;14.10
15626;BMP180;7912;51.376;6.126;2023-12-29T03:12:46;100502.00;;;14.20
15626;BMP180;7912;51.376;6.126;2023-12-29T03:15:13;100497.00;;;14.20
15626;BMP180;7912;51.376;6.126;2023-12-29T03:17:40;100496.00;;;14.20
15626;BMP180;7912;51.376;6.126;2023-12-29T03:20:11;100501.00;;;14.30
15626;BMP180;7912;51.376;6.126;2023-12-29T03:22:38;100498.00;;;14.20
15626;BMP180;7912;51.376;6.126;2023-12-29T03:25:06;100504.00;;;14.30
15626;BMP180;7912;51.376;6.126;2023-12-29T03:27:33;100483.00;;;14.30
15626;BMP180;7912;51.376;6.126;2023-12-29T03:30:01;100491.00;;;14.30
15626;BMP180;7912;51.376;6.126;2023-12-29T03:32:28;100479.00;;;14.30
15626;BMP180;7912;51.376;6.126;2023-12-29T03:34:56;100485.00;;;14.30
15626;BMP180;7912;51.376;6.126;2023-12-29T03:37:23;100474.00;;;14.30
15626;BMP180;7912;51.376;6.126;2023-12-29T03:39:53;100472.00;;;14.30
15626;BMP180;7912;51.376;6.126;2023-12-29T03:42:20;100484.00;;;14.30
15626;BMP180;7912;51.376;6.126;2023-12-29T03:44:48;100475.00;;;14.20
15626;BMP180;7912;51.376;6.126;2023-12-29T03:47:15;100461.00;;;14.30
15626;BMP180;7912;51.376;6.126;2023-12-29T03:49:42;100466.00;;;14.30
15626;BMP180;7912;51.376;6.126;2023-12-29T03:52:10;100460.00;;;14.20
15626;BMP180;7912;51.376;6.126;2023-12-29T03:54:38;100476.00;;;14.20
15626;BMP180;7912;51.376;6.126;2023-12-29T03:57:05;100481.00;;;14.20
15626;BMP180;7912;51.376;6.126;2023-12-29T03:59:36;100479.00;;;14.20
15626;BMP180;7912;51.376;6.126;2023-12-29T04:02:04;100482.00;;;14.20
15626;BMP180;7912;51.376;6.126;2023-12-29T04:04:32;100453.00;;;14.20
15626;BMP180;7912;51.376;6.126;2023-12-29T04:06:59;100476.00;;;14.20
15626;BMP180;7912;51.376;6.126;2023-12-29T04:09:26;100482.00;;;14.20
15626;BMP180;7912;51.376;6.126;2023-12-29T04:11:54;100476.00;;;14.20
15626;BMP180;7912;51.376;6.126;2023-12-29T04:14:21;100482.00;;;14.10
15626;BMP180;7912;51.376;6.126;2023-12-29T04:16:54;100482.00;;;14.10
15626;BMP180;7912;51.376;6.126;2023-12-29T04:19:21;100456.00;;;14.10
15626;BMP180;7912;51.376;6.126;2023-12-29T04:21:51;100471.00;;;14.10
15626;BMP180;7912;51.376;6.126;2023-12-29T04:24:19;100460.00;;;14.10
15626;BMP180;7912;51.376;6.126;2023-12-29T04:26:46;100445.00;;;14.10
15626;BMP180;7912;51.376;6.126;2023-12-29T04:29:13;100468.00;;;14.10
15626;BMP180;7912;51.376;6.126;2023-12-29T04:31:41;100462.00;;;14.10
15626;BMP180;7912;51.376;6.126;2023-12-29T04:34:09;100471.00;;;14.10
15626;BMP180;7912;51.376;6.126;2023-12-29T04:36:36;100470.00;;;14.10
15626;BMP180;7912;51.376;6.126;2023-12-29T04:39:03;100471.00;;;14.10
15626;BMP180;7912;51.376;6.126;2023-12-29T04:41:30;100474.00;;;14.10
15626;BMP180;7912;51.376;6.126;2023-12-29T04:43:58;100476.00;;;14.10
15626;BMP180;7912;51.376;6.126;2023-12-29T04:46:25;100469.00;;;14.10
15626;BMP180;7912;51.376;6.126;2023-12-29T04:48:55;100472.00;;;14.20
15626;BMP180;7912;51.376;6.126;2023-12-29T04:51:22;100463.00;;;14.20
15626;BMP180;7912;51.376;6.126;2023-12-29T04:53:51;100460.00;;;14.20
15626;BMP180;7912;51.376;6.126;2023-12-29T04:56:18;100471.00;;;14.20
15626;BMP180;7912;51.376;6.126;2023-12-29T04:58:46;100463.00;;;14.20
15626;BMP180;7912;51.376;6.126;2023-12-29T05:01:13;100451.00;;;14.20
15626;BMP180;7912;51.376;6.126;2023-12-29T05:03:40;100468.00;;;14.20
15626;BMP180;7912;51.376;6.126;2023-12-29T05:06:10;100465.00;;;14.30
15626;BMP180;7912;51.376;6.126;2023-12-29T05:08:37;100450.00;;;14.30
15626;BMP180;7912;51.376;6.126;2023-12-29T05:11:04;100471.00;;;14.30
15626;BMP180;7912;51.376;6.126;2023-12-29T05:13:34;100461.00;;;14.30
15626;BMP180;7912;51.376;6.126;2023-12-29T05:16:02;100476.00;;;14.30
15626;BMP180;7912;51.376;6.126;2023-12-29T05:18:30;100466.00;;;14.30
15626;BMP180;7912;51.376;6.126;2023-12-29T05:21:00;100456.00;;;14.30
15626;BMP180;7912;51.376;6.126;2023-12-29T05:23:30;100476.00;;;14.30
15626;BMP180;7912;51.376;6.126;2023-12-29T05:26:00;100470.00;;;14.30
15626;BMP180;7912;51.376;6.126;2023-12-29T05:28:27;100450.00;;;14.20
15626;BMP180;7912;51.376;6.126;2023-12-29T05:30:54;100466.00;;;14.30
15626;BMP180;7912;51.376;6.126;2023-12-29T05:33:21;100470.00;;;14.20
15626;BMP180;7912;51.376;6.126;2023-12-29T05:35:49;100463.00;;;14.30
15626;BMP180;7912;51.376;6.126;2023-12-29T05:38:16;100462.00;;;14.30
15626;BMP180;7912;51.376;6.126;2023-12-29T05:40:43;100471.00;;;14.30
15626;BMP180;7912;51.376;6.126;2023-12-29T05:43:10;100473.00;;;14.30
15626;BMP180;7912;51.376;6.126;2023-12-29T05:45:39;100471.00;;;14.30
15626;BMP180;7912;51.376;6.126;2023-12-29T05:48:08;100477.00;;;14.30
15626;BMP180;7912;51.376;6.126;2023-12-29T05:50:37;100465.00;;;14.30
15626;BMP180;7912;51.376;6.126;2023-12-29T05:53:04;100471.00;;;14.30
15626;BMP180;7912;51.376;6.126;2023-12-29T05:55:35;100469.00;;;14.30
15626;BMP180;7912;51.376;6.126;2023-12-29T05:58:03;100471.00;;;14.30
15626;BMP180;7912;51.376;6.126;2023-12-29T06:00:30;100462.00;;;14.30
15626;BMP180;7912;51.376;6.126;2023-12-29T06:02:58;100452.00;;;14.20
15626;BMP180;7912;51.376;6.126;2023-12-29T06:05:27;100453.00;;;14.20
15626;BMP180;7912;51.376;6.126;2023-12-29T06:07:54;100473.00;;;14.20
15626;BMP180;7912;51.376;6.126;2023-12-29T06:10:22;100461.00;;;14.20
15626;BMP180;7912;51.376;6.126;2023-12-29T06:12:49;100470.00;;;14.20
15626;BMP180;7912;51.376;6.126;2023-12-29T06:15:16;100476.00;;;14.20
15626;BMP180;7912;51.376;6.126;2023-12-29T06:17:44;100471.00;;;14.20
15626;BMP180;7912;51.376;6.126;2023-12-29T06:20:11;100465.00;;;14.20
15626;BMP180;7912;51.376;6.126;2023-12-29T06:22:41;100472.00;;;14.20
15626;BMP180;7912;51.376;6.126;2023-12-29T06:25:10;100466.00;;;14.20
15626;BMP180;7912;51.376;6.126;2023-12-29T06:27:40;100474.00;;;14.30
15626;BMP180;7912;51.376;6.126;2023-12-29T06:30:08;100462.00;;;14.30
15626;BMP180;7912;51.376;6.126;2023-12-29T06:32:37;100448.00;;;14.30
15626;BMP180;7912;51.376;6.126;2023-12-29T06:35:08;100458.00;;;14.30
15626;BMP180;7912;51.376;6.126;2023-12-29T06:37:40;100463.00;;;14.30
15626;BMP180;7912;51.376;6.126;2023-12-29T06:40:08;100452.00;;;14.30
15626;BMP180;7912;51.376;6.126;2023-12-29T06:42:36;100463.00;;;14.30
15626;BMP180;7912;51.376;6.126;2023-12-29T06:45:05;100444.00;;;14.30
15626;BMP180;7912;51.376;6.126;2023-12-29T06:47:35;100458.00;;;14.20
15626;BMP180;7912;51.376;6.126;2023-12-29T06:50:03;100458.00;;;14.20
15626;BMP180;7912;51.376;6.126;2023-12-29T06:52:31;100464.00;;;14.10
15626;BMP180;7912;51.376;6.126;2023-12-29T06:55:01;100448.00;;;14.00
15626;BMP180;7912;51.376;6.126;2023-12-29T06:57:29;100441.00;;;14.00
15626;BMP180;7912;51.376;6.126;2023-12-29T06:59:56;100447.00;;;13.90
15626;BMP180;7912;51.376;6.126;2023-12-29T07:02:23;100467.00;;;13.90
15626;BMP180;7912;51.376;6.126;2023-12-29T07:04:51;100479.00;;;13.80
15626;BMP180;7912;51.376;6.126;2023-12-29T07:07:18;100476.00;;;13.80
15626;BMP180;7912;51.376;6.126;2023-12-29T07:09:45;100477.00;;;13.70
15626;BMP180;7912;51.376;6.126;2023-12-29T07:12:13;100470.00;;;13.70
15626;BMP180;7912;51.376;6.126;2023-12-29T07:14:41;100467.00;;;13.70
15626;BMP180;7912;51.376;6.126;2023-12-29T07:17:09;100458.00;;;13.70
15626;BMP180;7912;51.376;6.126;2023-12-29T07:19:36;100462.00;;;13.70
15626;BMP180;7912;51.376;6.126;2023-12-29T07:22:05;100455.00;;;13.70
15626;BMP180;7912;51.376;6.126;2023-12-29T07:24:36;100456.00;;;13.70
15626;BMP180;7912;51.376;6.126;2023-12-29T07:27:04;100454.00;;;13.70
15626;BMP180;7912;51.376;6.126;2023-12-29T07:29:31;100452.00;;;13.70
15626;BMP180;7912;51.376;6.126;2023-12-29T07:31:58;100450.00;;;13.70
15626;BMP180;7912;51.376;6.126;2023-12-29T07:34:26;100457.00;;;13.70
15626;BMP180;7912;51.376;6.126;2023-12-29T07:36:55;100454.00;;;13.70
15626;BMP180;7912;51.376;6.126;2023-12-29T07:39:22;100454.00;;;13.70
15626;BMP180;7912;51.376;6.126;2023-12-29T07:41:50;100458.00;;;13.70
15626;BMP180;7912;51.376;6.126;2023-12-29T07:44:18;100454.00;;;13.70
15626;BMP180;7912;51.376;6.126;2023-12-29T07:46:45;100458.00;;;13.70
15626;BMP180;7912;51.376;6.126;2023-12-29T07:49:13;100469.00;;;13.70
15626;BMP180;7912;51.376;6.126;2023-12-29T07:51:42;100482.00;;;13.70
15626;BMP180;7912;51.376;6.126;2023-12-29T07:54:10;100478.00;;;13.70
15626;BMP180;7912;51.376;6.126;2023-12-29T07:56:37;100464.00;;;13.70
15626;BMP180;7912;51.376;6.126;2023-12-29T07:59:05;100458.00;;;13.70
15626;BMP180;7912;51.376;6.126;2023-12-29T08:01:33;100462.00;;;13.70
15626;BMP180;7912;51.376;6.126;2023-12-29T08:04:01;100467.00;;;13.70
15626;BMP180;7912;51.376;6.126;2023-12-29T08:06:28;100460.00;;;13.70
15626;BMP180;7912;51.376;6.126;2023-12-29T08:08:55;100456.00;;;13.70
15626;BMP180;7912;51.376;6.126;2023-12-29T08:11:25;100461.00;;;13.70
15626;BMP180;7912;51.376;6.126;2023-12-29T08:13:52;100456.00;;;13.70
15626;BMP180;7912;51.376;6.126;2023-12-29T08:16:19;100468.00;;;13.70
15626;BMP180;7912;51.376;6.126;2023-12-29T08:18:49;100461.00;;;13.70
15626;BMP180;7912;51.376;6.126;2023-12-29T08:21:19;100466.00;;;13.70
15626;BMP180;7912;51.376;6.126;2023-12-29T08:23:47;100473.00;;;13.70
15626;BMP180;7912;51.376;6.126;2023-12-29T08:26:15;100466.00;;;13.70
15626;BMP180;7912;51.376;6.126;2023-12-29T08:28:42;100474.00;;;13.70
15626;BMP180;7912;51.376;6.126;2023-12-29T08:31:10;100474.00;;;13.60
15626;BMP180;7912;51.376;6.126;2023-12-29T08:33:37;100475.00;;;13.60
15626;BMP180;7912;51.376;6.126;2023-12-29T08:36:05;100479.00;;;13.60
15626;BMP180;7912;51.376;6.126;2023-12-29T08:38:33;100476.00;;;13.60
15626;BMP180;7912;51.376;6.126;2023-12-29T08:41:00;100490.00;;;13.60
15626;BMP180;7912;51.376;6.126;2023-12-29T08:43:28;100490.00;;;13.60
15626;BMP180;7912;51.376;6.126;2023-12-29T08:45:56;100468.00;;;13.60
15626;BMP180;7912;51.376;6.126;2023-12-29T08:48:25;100472.00;;;13.60
15626;BMP180;7912;51.376;6.126;2023-12-29T08:50:53;100462.00;;;13.60
15626;BMP180;7912;51.376;6.126;2023-12-29T08:53:23;100441.00;;;13.60
15626;BMP180;7912;51.376;6.126;2023-12-29T08:55:50;100446.00;;;13.50
15626;BMP180;7912;51.376;6.126;2023-12-29T08:58:17;100463.00;;;13.60
15626;BMP180;7912;51.376;6.126;2023-12-29T09:00:44;100456.00;;;13.50
15626;BMP180;7912;51.376;6.126;2023-12-29T09:03:12;100466.00;;;13.60
15626;BMP180;7912;51.376;6.126;2023-12-29T09:05:39;100483.00;;;13.50
15626;BMP180;7912;51.376;6.126;2023-12-29T09:08:06;100477.00;;;13.50
15626;BMP180;7912;51.376;6.126;2023-12-29T09:10:37;100481.00;;;13.50
15626;BMP180;7912;51.376;6.126;2023-12-29T09:13:05;100476.00;;;13.50
15626;BMP180;7912;51.376;6.126;2023-12-29T09:15:32;100484.00;;;13.50
15626;BMP180;7912;51.376;6.126;2023-12-29T09:18:01;100487.00;;;13.50
15626;BMP180;7912;51.376;6.126;2023-12-29T09:20:29;100484.00;;;13.50
15626;BMP180;7912;51.376;6.126;2023-12-29T09:22:58;100515.00;;;13.50
15626;BMP180;7912;51.376;6.126;2023-12-29T09:25:25;100513.00;;;13.50
15626;BMP180;7912;51.376;6.126;2023-12-29T09:27:55;100499.00;;;13.50
15626;BMP180;7912;51.376;6.126;2023-12-29T09:30:22;100498.00;;;13.50
15626;BMP180;7912;51.376;6.126;2023-12-29T09:32:49;100490.00;;;13.40
15626;BMP180;7912;51.376;6.126;2023-12-29T09:35:17;100483.00;;;13.40
15626;BMP180;7912;51.376;6.126;2023-12-29T09:37:44;100494.00;;;13.40
15626;BMP180;7912;51.376;6.126;2023-12-29T09:40:12;100479.00;;;13.40
15626;BMP180;7912;51.376;6.126;2023-12-29T09:42:43;100451.00;;;13.40
15626;BMP180;7912;51.376;6.126;2023-12-29T09:45:13;100477.00;;;13.40
15626;BMP180;7912;51.376;6.126;2023-12-29T09:47:42;100488.00;;;13.40
15626;BMP180;7912;51.376;6.126;2023-12-29T09:50:30;100490.00;;;13.30
15626;BMP180;7912;51.376;6.126;2023-12-29T09:52:58;100485.00;;;13.30
15626;BMP180;7912;51.376;6.126;2023-12-29T09:55:27;100484.00;;;13.30
15626;BMP180;7912;51.376;6.126;2023-12-29T09:57:55;100477.00;;;13.30
15626;BMP180;7912;51.376;6.126;2023-12-29T10:00:29;100485.00;;;13.30
15626;BMP180;7912;51.376;6.126;2023-12-29T10:02:57;100499.00;;;13.40
15626;BMP180;7912;51.376;6.126;2023-12-29T10:05:25;100502.00;;;13.40
15626;BMP180;7912;51.376;6.126;2023-12-29T10:07:53;100506.00;;;13.40
15626;BMP180;7912;51.376;6.126;2023-12-29T10:10:21;100514.00;;;13.40
15626;BMP180;7912;51.376;6.126;2023-12-29T10:12:52;100496.00;;;13.40
15626;BMP180;7912;51.376;6.126;2023-12-29T10:15:39;100503.00;;;13.40
15626;BMP180;7912;51.376;6.126;2023-12-29T10:18:39;100508.00;;;13.50
15626;BMP180;7912;51.376;6.126;2023-12-29T10:22:20;100497.00;;;13.50
15626;BMP180;7912;51.376;6.126;2023-12-29T10:24:33;100506.00;;;13.50
15626;BMP180;7912;51.376;6.126;2023-12-29T10:27:04;100507.00;;;13.60
15626;BMP180;7912;51.376;6.126;2023-12-29T10:29:34;100507.00;;;13.70
15626;BMP180;7912;51.376;6.126;2023-12-29T10:32:01;100496.00;;;13.70
15626;BMP180;7912;51.376;6.126;2023-12-29T10:34:29;100504.00;;;13.70
15626;BMP180;7912;51.376;6.126;2023-12-29T10:37:00;100496.00;;;13.70
15626;BMP180;7912;51.376;6.126;2023-12-29T10:39:36;100512.00;;;13.80
15626;BMP180;7912;51.376;6.126;2023-12-29T10:42:06;100522.00;;;13.80
15626;BMP180;7912;51.376;6.126;2023-12-29T10:44:38;100519.00;;;13.90
15626;BMP180;7912;51.376;6.126;2023-12-29T10:47:12;100518.00;;;13.90
15626;BMP180;7912;51.376;6.126;2023-12-29T10:49:41;100511.00;;;13.90
15626;BMP180;7912;51.376;6.126;2023-12-29T10:52:13;100519.00;;;14.00
15626;BMP180;7912;51.376;6.126;2023-12-29T10:54:43;100522.00;;;14.00
15626;BMP180;7912;51.376;6.126;2023-12-29T10:57:12;100517.00;;;14.10
15626;BMP180;7912;51.376;6.126;2023-12-29T10:59:40;100532.00;;;14.10
15626;BMP180;7912;51.376;6.126;2023-12-29T11:02:11;100526.00;;;14.20
15626;BMP180;7912;51.376;6.126;2023-12-29T11:04:41;100529.00;;;14.20
15626;BMP180;7912;51.376;6.126;2023-12-29T11:07:12;100545.00;;;14.20
15626;BMP180;7912;51.376;6.126;2023-12-29T11:09:41;100549.00;;;14.20
15626;BMP180;7912;51.376;6.126;2023-12-29T11:12:10;100536.00;;;14.20
15626;BMP180;7912;51.376;6.126;2023-12-29T11:14:41;100521.00;;;14.20
15626;BMP180;7912;51.376;6.126;2023-12-29T11:17:14;100522.00;;;14.20
15626;BMP180;7912;51.376;6.126;2023-12-29T11:19:48;100532.00;;;14.20
15626;BMP180;7912;51.376;6.126;2023-12-29T11:22:18;100530.00;;;14.30
15626;BMP180;7912;51.376;6.126;2023-12-29T11:24:48;100522.00;;;14.30
15626;BMP180;7912;51.376;6.126;2023-12-29T11:27:16;100521.00;;;14.40
15626;BMP180;7912;51.376;6.126;2023-12-29T11:29:45;100512.00;;;14.40
15626;BMP180;7912;51.376;6.126;2023-12-29T11:32:29;100500.00;;;14.50
15626;BMP180;7912;51.376;6.126;2023-12-29T11:35:22;100494.00;;;14.50
15626;BMP180;7912;51.376;6.126;2023-12-29T11:41:21;100503.00;;;14.50
15626;BMP180;7912;51.376;6.126;2023-12-29T11:43:58;100500.00;;;14.50
15626;BMP180;7912;51.376;6.126;2023-12-29T11:46:45;100486.00;;;14.50
15626;BMP180;7912;51.376;6.126;2023-12-29T11:49:12;100496.00;;;14.50
15626;BMP180;7912;51.376;6.126;2023-12-29T11:51:44;100498.00;;;14.60
15626;BMP180;7912;51.376;6.126;2023-12-29T11:54:25;100502.00;;;14.60
15626;BMP180;7912;51.376;6.126;2023-12-29T11:56:55;100493.00;;;14.60
15626;BMP180;7912;51.376;6.126;2023-12-29T11:59:25;100494.00;;;14.60
15626;BMP180;7912;51.376;6.126;2023-12-29T12:01:57;100495.00;;;14.60
15626;BMP180;7912;51.376;6.126;2023-12-29T12:04:41;100486.00;;;14.70
15626;BMP180;7912;51.376;6.126;2023-12-29T12:12:47;100470.00;;;14.60
15626;BMP180;7912;51.376;6.126;2023-12-29T12:20:27;100464.00;;;14.50
15626;BMP180;7912;51.376;6.126;2023-12-29T12:23:11;100464.00;;;14.50
15626;BMP180;7912;51.376;6.126;2023-12-29T12:25:42;100456.00;;;14.50
15626;BMP180;7912;51.376;6.126;2023-12-29T12:28:10;100453.00;;;14.50
15626;BMP180;7912;51.376;6.126;2023-12-29T12:30:37;100447.00;;;14.50
15626;BMP180;7912;51.376;6.126;2023-12-29T12:33:05;100458.00;;;14.50
15626;BMP180;7912;51.376;6.126;2023-12-29T12:35:33;100466.00;;;14.50
15626;BMP180;7912;51.376;6.126;2023-12-29T12:38:16;100453.00;;;14.50
15626;BMP180;7912;51.376;6.126;2023-12-29T12:40:48;100434.00;;;14.60
15626;BMP180;7912;51.376;6.126;2023-12-29T12:43:19;100444.00;;;14.50
15626;BMP180;7912;51.376;6.126;2023-12-29T12:45:59;100430.00;;;14.50
15626;BMP180;7912;51.376;6.126;2023-12-29T12:48:39;100432.00;;;14.50
15626;BMP180;7912;51.376;6.126;2023-12-29T12:51:09;100421.00;;;14.50
15626;BMP180;7912;51.376;6.126;2023-12-29T12:53:46;100417.00;;;14.50
15626;BMP180;7912;51.376;6.126;2023-12-29T12:56:18;100418.00;;;14.50
15626;BMP180;7912;51.376;6.126;2023-12-29T12:58:46;100432.00;;;14.50
15626;BMP180;7912;51.376;6.126;2023-12-29T13:01:14;100435.00;;;14.50
15626;BMP180;7912;51.376;6.126;2023-12-29T13:03:42;100428.00;;;14.50
15626;BMP180;7912;51.376;6.126;2023-12-29T13:06:11;100432.00;;;14.50
15626;BMP180;7912;51.376;6.126;2023-12-29T13:08:39;100431.00;;;14.50
15626;BMP180;7912;51.376;6.126;2023-12-29T13:11:10;100430.00;;;14.50
15626;BMP180;7912;51.376;6.126;2023-12-29T13:13:42;100424.00;;;14.50
15626;BMP180;7912;51.376;6.126;2023-12-29T13:16:10;100417.00;;;14.50
15626;BMP180;7912;51.376;6.126;2023-12-29T13:18:38;100415.00;;;14.60
15626;BMP180;7912;51.376;6.126;2023-12-29T13:21:07;100430.00;;;14.60
15626;BMP180;7912;51.376;6.126;2023-12-29T13:23:36;100429.00;;;14.60
15626;BMP180;7912;51.376;6.126;2023-12-29T13:26:07;100425.00;;;14.60
15626;BMP180;7912;51.376;6.126;2023-12-29T13:28:37;100416.00;;;14.60
15626;BMP180;7912;51.376;6.126;2023-12-29T13:31:10;100419.00;;;14.60
15626;BMP180;7912;51.376;6.126;2023-12-29T13:34:06;100414.00;;;14.70
15626;BMP180;7912;51.376;6.126;2023-12-29T13:37:01;100418.00;;;14.70
15626;BMP180;7912;51.376;6.126;2023-12-29T13:42:31;100410.00;;;14.70
15626;BMP180;7912;51.376;6.126;2023-12-29T13:45:01;100411.00;;;14.70
15626;BMP180;7912;51.376;6.126;2023-12-29T13:47:31;100409.00;;;14.70
15626;BMP180;7912;51.376;6.126;2023-12-29T13:49:59;100401.00;;;14.70
15626;BMP180;7912;51.376;6.126;2023-12-29T13:52:27;100399.00;;;14.70
15626;BMP180;7912;51.376;6.126;2023-12-29T13:54:54;100383.00;;;14.70
15626;BMP180;7912;51.376;6.126;2023-12-29T13:57:36;100391.00;;;14.70
15626;BMP180;7912;51.376;6.126;2023-12-29T14:00:24;100390.00;;;14.70
15626;BMP180;7912;51.376;6.126;2023-12-29T14:03:01;100385.00;;;14.70
15626;BMP180;7912;51.376;6.126;2023-12-29T14:05:43;100402.00;;;14.60
15626;BMP180;7912;51.376;6.126;2023-12-29T14:08:38;100399.00;;;14.60
15626;BMP180;7912;51.376;6.126;2023-12-29T14:11:10;100392.00;;;14.60
15626;BMP180;7912;51.376;6.126;2023-12-29T14:13:45;100388.00;;;14.60
15626;BMP180;7912;51.376;6.126;2023-12-29T14:16:12;100404.00;;;14.60
15626;BMP180;7912;51.376;6.126;2023-12-29T14:21:33;100401.00;;;14.60
15626;BMP180;7912;51.376;6.126;2023-12-29T14:26:41;100394.00;;;14.60
15626;BMP180;7912;51.376;6.126;2023-12-29T14:29:12;100414.00;;;14.50
15626;BMP180;7912;51.376;6.126;2023-12-29T14:31:43;100415.00;;;14.50
15626;BMP180;7912;51.376;6.126;2023-12-29T14:34:11;100423.00;;;14.50
15626;BMP180;7912;51.376;6.126;2023-12-29T14:36:43;100425.00;;;14.50
15626;BMP180;7912;51.376;6.126;2023-12-29T14:39:10;100410.00;;;14.50
15626;BMP180;7912;51.376;6.126;2023-12-29T14:41:39;100408.00;;;14.50
15626;BMP180;7912;51.376;6.126;2023-12-29T14:44:06;100415.00;;;14.50
15626;BMP180;7912;51.376;6.126;2023-12-29T14:46:35;100417.00;;;14.50
15626;BMP180;7912;51.376;6.126;2023-12-29T14:49:05;100419.00;;;14.50
15626;BMP180;7912;51.376;6.126;2023-12-29T14:51:33;100428.00;;;14.50